Time,TemperatureF,DewpointF,PressureIn,WindDirection,WindDirectionDegrees,WindSpeedMPH,WindSpeedGustMPH,Humidity,HourlyPrecipIn,Conditions,Clouds,dailyrainin,SolarRadiationWatts/m^2,SoftwareType,DateUTC
2013-05-27 00:01:00,67.0,25.0,-100.00,North,-999,-999.0,11.0,20,0.00,,,-99.99,0.000000,,2013-05-27 06:01:00,
2013-05-27 00:11:00,70.0,23.0,-100.00,North,-999,-999.0,26.0,17,0.00,,,-99.99,0.000000,,2013-05-27 06:11:00,
2013-05-27 00:21:00,67.0,25.0,-100.00,North,-999,-999.0,6.0,20,0.00,,,-99.99,0.000000,,2013-05-27 06:21:00,
2013-05-27 00:31:00,65.0,27.0,-100.00,North,-999,-999.0,4.0,24,0.00,,,-99.99,0.000000,,2013-05-27 06:31:00,
2013-05-27 00:41:00,65.0,25.0,-100.00,North,-999,-999.0,6.0,22,0.00,,,-99.99,0.000000,,2013-05-27 06:41:00,
2013-05-27 00:52:00,64.0,25.0,-100.00,North,-999,-999.0,6.0,22,0.00,,,-99.99,0.000000,,2013-05-27 06:52:00,
2013-05-27 01:01:00,65.0,24.0,-100.00,North,-999,-999.0,4.0,21,0.00,,,-99.99,0.000000,,2013-05-27 07:01:00,
2013-05-27 01:11:00,66.0,22.0,-100.00,North,-999,-999.0,5.0,19,0.00,,,-99.99,0.000000,,2013-05-27 07:11:00,
2013-05-27 01:21:00,65.0,25.0,-100.00,North,-999,-999.0,5.0,22,0.00,,,-99.99,0.000000,,2013-05-27 07:21:00,
2013-05-27 01:31:00,65.0,24.0,-100.00,North,-999,-999.0,5.0,21,0.00,,,-99.99,0.000000,,2013-05-27 07:31:00,
2013-05-27 01:41:00,65.0,24.0,-100.00,North,-999,-999.0,5.0,21,0.00,,,-99.99,0.000000,,2013-05-27 07:41:00,
2013-05-27 01:50:00,63.0,27.0,-100.00,North,-999,-999.0,6.0,25,0.00,,,-99.99,0.000000,,2013-05-27 07:50:00,
2013-05-27 01:52:00,64.0,27.0,-100.00,North,-999,-999.0,4.0,25,0.00,,,-99.99,0.000000,,2013-05-27 07:52:00,
2013-05-27 02:02:00,64.0,27.0,-100.00,North,-999,-999.0,4.0,25,0.00,,,-99.99,0.000000,,2013-05-27 08:02:00,
2013-05-27 02:11:00,63.0,27.0,-100.00,North,-999,-999.0,6.0,25,0.00,,,-99.99,0.000000,,2013-05-27 08:11:00,
2013-05-27 02:21:00,63.0,27.0,-100.00,North,-999,-999.0,6.0,25,0.00,,,-99.99,0.000000,,2013-05-27 08:21:00,
2013-05-27 02:32:00,63.0,27.0,-100.00,North,-999,-999.0,6.0,25,0.00,,,-99.99,0.000000,,2013-05-27 08:32:00,
2013-05-27 02:41:00,63.0,27.0,-100.00,North,-999,-999.0,6.0,25,0.00,,,-99.99,0.000000,,2013-05-27 08:41:00,
2013-05-27 03:22:00,65.0,35.0,-100.00,North,-999,-999.0,16.0,32,0.00,,,-99.99,0.000000,,2013-05-27 09:22:00,
2013-05-27 03:33:00,64.0,34.0,-100.00,North,-999,-999.0,12.0,33,0.00,,,-99.99,0.000000,,2013-05-27 09:33:00,
2013-05-27 03:42:00,63.0,34.0,-100.00,North,-999,-999.0,9.0,34,0.00,,,-99.99,0.000000,,2013-05-27 09:42:00,
2013-05-27 03:53:00,60.0,35.0,-100.00,North,-999,-999.0,6.0,38,0.00,,,-99.99,0.000000,,2013-05-27 09:53:00,
2013-05-27 04:02:00,60.0,36.0,-100.00,North,-999,-999.0,9.0,40,0.00,,,-99.99,0.000000,,2013-05-27 10:02:00,
2013-05-27 04:12:00,60.0,37.0,-100.00,North,-999,-999.0,11.0,43,0.00,,,-99.99,0.000000,,2013-05-27 10:12:00,
2013-05-27 04:22:00,59.0,39.0,-100.00,North,-999,-999.0,9.0,48,0.00,,,-99.99,0.000000,,2013-05-27 10:22:00,
2013-05-27 04:32:00,59.0,39.0,-100.00,North,-999,-999.0,11.0,49,0.00,,,-99.99,0.000000,,2013-05-27 10:32:00,
2013-05-27 04:42:00,58.0,40.0,-100.00,North,-999,-999.0,10.0,52,0.00,,,-99.99,0.000000,,2013-05-27 10:42:00,
2013-05-27 04:52:00,57.0,41.0,-100.00,North,-999,-999.0,9.0,55,0.00,,,-99.99,0.000000,,2013-05-27 10:52:00,
2013-05-27 05:02:00,56.0,41.0,-100.00,North,-999,-999.0,9.0,57,0.00,,,-99.99,0.000000,,2013-05-27 11:02:00,
2013-05-27 05:11:00,56.0,41.0,-100.00,North,-999,-999.0,10.0,57,0.00,,,-99.99,0.000000,,2013-05-27 11:11:00,
2013-05-27 05:21:00,55.0,40.0,-100.00,North,-999,-999.0,9.0,57,0.00,,,-99.99,0.000000,,2013-05-27 11:21:00,
2013-05-27 05:31:00,55.0,40.0,-100.00,North,-999,-999.0,8.0,56,0.00,,,-99.99,0.000000,,2013-05-27 11:31:00,
2013-05-27 05:42:00,55.0,40.0,-100.00,North,-999,-999.0,7.0,57,0.00,,,-99.99,0.000000,,2013-05-27 11:42:00,
2013-05-27 05:51:00,55.0,40.0,-100.00,North,-999,-999.0,7.0,57,0.00,,,-99.99,0.000000,,2013-05-27 11:51:00,
2013-05-27 06:01:00,54.0,40.0,-100.00,North,-999,-999.0,7.0,59,0.00,,,-99.99,0.000000,,2013-05-27 12:01:00,
2013-05-27 06:11:00,53.0,40.0,-100.00,North,-999,-999.0,7.0,61,0.00,,,-99.99,0.000000,,2013-05-27 12:11:00,
2013-05-27 06:21:00,54.0,41.0,-100.00,North,-999,-999.0,8.0,60,0.00,,,-99.99,2.000000,,2013-05-27 12:21:00,
2013-05-27 06:31:00,55.0,40.0,-100.00,North,-999,-999.0,9.0,58,0.00,,,-99.99,5.000000,,2013-05-27 12:31:00,
2013-05-27 06:42:00,55.0,40.0,-100.00,North,-999,-999.0,9.0,57,0.00,,,-99.99,11.000000,,2013-05-27 12:42:00,
2013-05-27 06:50:00,55.0,40.0,-100.00,North,-999,-999.0,7.0,58,0.00,,,-99.99,26.000000,,2013-05-27 12:50:00,
2013-05-27 06:52:00,55.0,40.0,-100.00,North,-999,-999.0,9.0,56,0.00,,,-99.99,17.000000,,2013-05-27 12:52:00,
2013-05-27 07:01:00,55.0,40.0,-100.00,North,-999,-999.0,10.0,57,0.00,,,-99.99,22.000000,,2013-05-27 13:01:00,
2013-05-27 07:11:00,55.0,40.0,-100.00,North,-999,-999.0,7.0,58,0.00,,,-99.99,26.000000,,2013-05-27 13:11:00,
2013-05-27 07:21:00,55.0,40.0,-100.00,North,-999,-999.0,7.0,58,0.00,,,-99.99,26.000000,,2013-05-27 13:21:00,
2013-05-27 07:32:00,55.0,40.0,-100.00,North,-999,-999.0,7.0,58,0.00,,,-99.99,26.000000,,2013-05-27 13:32:00,
2013-05-27 07:41:00,55.0,40.0,-100.00,North,-999,-999.0,7.0,58,0.00,,,-99.99,26.000000,,2013-05-27 13:41:00,
2013-05-27 08:22:00,59.0,42.0,-100.00,North,-999,-999.0,5.0,54,0.00,,,-99.99,292.000000,,2013-05-27 14:22:00,
2013-05-27 08:32:00,59.0,42.0,-100.00,North,-999,-999.0,6.0,53,0.00,,,-99.99,324.000000,,2013-05-27 14:32:00,
2013-05-27 08:42:00,59.0,41.0,-100.00,North,-999,-999.0,5.0,50,0.00,,,-99.99,355.000000,,2013-05-27 14:42:00,
2013-05-27 08:52:00,60.0,43.0,-100.00,North,-999,-999.0,6.0,53,0.00,,,-99.99,388.000000,,2013-05-27 14:52:00,
2013-05-27 09:01:00,60.0,41.0,-100.00,North,-999,-999.0,8.0,48,0.00,,,-99.99,421.000000,,2013-05-27 15:01:00,
2013-05-27 09:11:00,61.0,41.0,-100.00,North,-999,-999.0,8.0,48,0.00,,,-99.99,449.000000,,2013-05-27 15:11:00,
2013-05-27 09:21:00,61.0,41.0,-100.00,North,-999,-999.0,7.0,48,0.00,,,-99.99,481.000000,,2013-05-27 15:21:00,
2013-05-27 09:33:00,62.0,39.0,-100.00,North,-999,-999.0,5.0,43,0.00,,,-99.99,513.000000,,2013-05-27 15:33:00,
2013-05-27 09:43:00,62.0,39.0,-100.00,North,-999,-999.0,6.0,43,0.00,,,-99.99,546.000000,,2013-05-27 15:43:00,
2013-05-27 09:53:00,63.0,40.0,-100.00,North,-999,-999.0,4.0,44,0.00,,,-99.99,577.000000,,2013-05-27 15:53:00,
2013-05-27 10:02:00,63.0,38.0,-100.00,North,-999,-999.0,5.0,40,0.00,,,-99.99,605.000000,,2013-05-27 16:02:00,
2013-05-27 10:12:00,63.0,43.0,-100.00,North,-999,-999.0,4.0,48,0.00,,,-99.99,632.000000,,2013-05-27 16:12:00,
2013-05-27 10:22:00,64.0,39.0,-100.00,North,-999,-999.0,5.0,40,0.00,,,-99.99,659.000000,,2013-05-27 16:22:00,
2013-05-27 10:33:00,64.0,41.0,-100.00,North,-999,-999.0,6.0,42,0.00,,,-99.99,691.000000,,2013-05-27 16:33:00,
2013-05-27 10:42:00,64.0,41.0,-100.00,North,-999,-999.0,6.0,43,0.00,,,-99.99,716.000000,,2013-05-27 16:42:00,
2013-05-27 10:52:00,65.0,39.0,-100.00,North,-999,-999.0,5.0,39,0.00,,,-99.99,747.000000,,2013-05-27 16:52:00,
2013-05-27 11:02:00,65.0,37.0,-100.00,North,-999,-999.0,5.0,35,0.00,,,-99.99,772.000000,,2013-05-27 17:02:00,
2013-05-27 11:11:00,65.0,40.0,-100.00,North,-999,-999.0,7.0,40,0.00,,,-99.99,795.000000,,2013-05-27 17:11:00,
2013-05-27 11:21:00,65.0,42.0,-100.00,North,-999,-999.0,6.0,43,0.00,,,-99.99,828.000000,,2013-05-27 17:21:00,
2013-05-27 11:31:00,67.0,39.0,-100.00,North,-999,-999.0,8.0,36,0.00,,,-99.99,857.000000,,2013-05-27 17:31:00,
2013-05-27 11:42:00,67.0,36.0,-100.00,North,-999,-999.0,8.0,32,0.00,,,-99.99,873.000000,,2013-05-27 17:42:00,
2013-05-27 11:50:00,68.0,35.0,-100.00,North,-999,-999.0,8.0,30,0.00,,,-99.99,936.000000,,2013-05-27 17:50:00,
2013-05-27 11:52:00,67.0,36.0,-100.00,North,-999,-999.0,8.0,32,0.00,,,-99.99,873.000000,,2013-05-27 17:52:00,
2013-05-27 12:02:00,68.0,37.0,-100.00,North,-999,-999.0,7.0,32,0.00,,,-99.99,909.000000,,2013-05-27 18:02:00,
2013-05-27 12:11:00,68.0,35.0,-100.00,North,-999,-999.0,8.0,30,0.00,,,-99.99,936.000000,,2013-05-27 18:11:00,
2013-05-27 12:21:00,68.0,35.0,-100.00,North,-999,-999.0,8.0,30,0.00,,,-99.99,936.000000,,2013-05-27 18:21:00,
2013-05-27 12:32:00,68.0,35.0,-100.00,North,-999,-999.0,8.0,30,0.00,,,-99.99,936.000000,,2013-05-27 18:32:00,
2013-05-27 12:42:00,68.0,35.0,-100.00,North,-999,-999.0,8.0,30,0.00,,,-99.99,936.000000,,2013-05-27 18:42:00,
2013-05-27 13:22:00,69.0,38.0,-100.00,North,-999,-999.0,11.0,32,0.00,,,-99.99,1004.000000,,2013-05-27 19:22:00,
2013-05-27 13:32:00,69.0,35.0,-100.00,North,-999,-999.0,9.0,28,0.00,,,-99.99,1002.000000,,2013-05-27 19:32:00,
2013-05-27 13:42:00,70.0,35.0,-100.00,North,-999,-999.0,9.0,28,0.00,,,-99.99,1075.000000,,2013-05-27 19:42:00,
2013-05-27 13:52:00,70.0,35.0,-100.00,North,-999,-999.0,7.0,28,0.00,,,-99.99,1065.000000,,2013-05-27 19:52:00,
2013-05-27 14:01:00,71.0,38.0,-100.00,North,-999,-999.0,7.0,30,0.00,,,-99.99,1019.000000,,2013-05-27 20:01:00,
2013-05-27 14:11:00,71.0,33.0,-100.00,North,-999,-999.0,8.0,25,0.00,,,-99.99,902.000000,,2013-05-27 20:11:00,
2013-05-27 14:21:00,71.0,36.0,-100.00,North,-999,-999.0,8.0,27,0.00,,,-99.99,1043.000000,,2013-05-27 20:21:00,
2013-05-27 14:32:00,72.0,35.0,-100.00,North,-999,-999.0,10.0,26,0.00,,,-99.99,1108.000000,,2013-05-27 20:32:00,
2013-05-27 14:41:00,71.0,41.0,-100.00,North,-999,-999.0,8.0,33,0.00,,,-99.99,1046.000000,,2013-05-27 20:41:00,
2013-05-27 14:52:00,71.0,41.0,-100.00,North,-999,-999.0,8.0,33,0.00,,,-99.99,1046.000000,,2013-05-27 20:52:00,
2013-05-27 15:01:00,72.0,38.0,-100.00,North,-999,-999.0,11.0,29,0.00,,,-99.99,966.000000,,2013-05-27 21:01:00,
2013-05-27 15:11:00,72.0,40.0,-100.00,North,-999,-999.0,11.0,31,0.00,,,-99.99,939.000000,,2013-05-27 21:11:00,
2013-05-27 15:21:00,72.0,39.0,-100.00,North,-999,-999.0,10.0,30,0.00,,,-99.99,906.000000,,2013-05-27 21:21:00,
2013-05-27 15:33:00,72.0,38.0,-100.00,North,-999,-999.0,11.0,29,0.00,,,-99.99,922.000000,,2013-05-27 21:33:00,
2013-05-27 15:42:00,72.0,35.0,-100.00,North,-999,-999.0,12.0,26,0.00,,,-99.99,800.000000,,2013-05-27 21:42:00,
2013-05-27 15:53:00,73.0,36.0,-100.00,North,-999,-999.0,12.0,26,0.00,,,-99.99,849.000000,,2013-05-27 21:53:00,
2013-05-27 16:02:00,73.0,38.0,-100.00,North,-999,-999.0,11.0,28,0.00,,,-99.99,796.000000,,2013-05-27 22:02:00,
2013-05-27 16:12:00,73.0,37.0,-100.00,North,-999,-999.0,13.0,27,0.00,,,-99.99,842.000000,,2013-05-27 22:12:00,
2013-05-27 16:22:00,73.0,37.0,-100.00,North,-999,-999.0,13.0,27,0.00,,,-99.99,817.000000,,2013-05-27 22:22:00,
2013-05-27 16:32:00,72.0,38.0,-100.00,North,-999,-999.0,13.0,28,0.00,,,-99.99,705.000000,,2013-05-27 22:32:00,
2013-05-27 16:42:00,73.0,41.0,-100.00,North,-999,-999.0,12.0,31,0.00,,,-99.99,889.000000,,2013-05-27 22:42:00,
2013-05-27 16:50:00,72.0,34.0,-100.00,North,-999,-999.0,11.0,25,0.00,,,-99.99,671.000000,,2013-05-27 22:50:00,
2013-05-27 16:52:00,73.0,38.0,-100.00,North,-999,-999.0,11.0,28,0.00,,,-99.99,736.000000,,2013-05-27 22:52:00,
2013-05-27 17:02:00,71.0,36.0,-100.00,North,-999,-999.0,13.0,27,0.00,,,-99.99,301.000000,,2013-05-27 23:02:00,
2013-05-27 17:12:00,72.0,34.0,-100.00,North,-999,-999.0,11.0,25,0.00,,,-99.99,671.000000,,2013-05-27 23:12:00,
2013-05-27 17:22:00,72.0,34.0,-100.00,North,-999,-999.0,11.0,25,0.00,,,-99.99,671.000000,,2013-05-27 23:22:00,
2013-05-27 17:32:00,72.0,34.0,-100.00,North,-999,-999.0,11.0,25,0.00,,,-99.99,671.000000,,2013-05-27 23:32:00,
2013-05-27 17:42:00,72.0,34.0,-100.00,North,-999,-999.0,11.0,25,0.00,,,-99.99,671.000000,,2013-05-27 23:42:00,
2013-05-27 18:22:00,73.0,39.0,-100.00,North,-999,-999.0,9.0,30,0.00,,,-99.99,594.000000,,2013-05-28 00:22:00,
2013-05-27 18:32:00,73.0,39.0,-100.00,North,-999,-999.0,9.0,30,0.00,,,-99.99,594.000000,,2013-05-28 00:32:00,
2013-05-27 18:42:00,74.0,37.0,-100.00,North,-999,-999.0,8.0,26,0.00,,,-99.99,397.000000,,2013-05-28 00:42:00,
2013-05-27 18:52:00,74.0,37.0,-100.00,North,-999,-999.0,8.0,26,0.00,,,-99.99,397.000000,,2013-05-28 00:52:00,
2013-05-27 19:01:00,73.0,36.0,-100.00,North,-999,-999.0,6.0,26,0.00,,,-99.99,341.000000,,2013-05-28 01:01:00,
2013-05-27 19:11:00,72.0,37.0,-100.00,North,-999,-999.0,8.0,27,0.00,,,-99.99,257.000000,,2013-05-28 01:11:00,
2013-05-27 19:21:00,72.0,36.0,-100.00,North,-999,-999.0,9.0,27,0.00,,,-99.99,255.000000,,2013-05-28 01:21:00,
2013-05-27 19:31:00,71.0,36.0,-100.00,North,-999,-999.0,10.0,27,0.00,,,-99.99,144.000000,,2013-05-28 01:31:00,
2013-05-27 19:41:00,70.0,35.0,-100.00,North,-999,-999.0,6.0,28,0.00,,,-99.99,111.000000,,2013-05-28 01:41:00,
2013-05-27 19:52:00,71.0,33.0,-100.00,North,-999,-999.0,7.0,25,0.00,,,-99.99,206.000000,,2013-05-28 01:52:00,
2013-05-27 20:02:00,71.0,36.0,-100.00,North,-999,-999.0,5.0,27,0.00,,,-99.99,111.000000,,2013-05-28 02:02:00,
2013-05-27 20:11:00,70.0,38.0,-100.00,North,-999,-999.0,8.0,32,0.00,,,-99.99,66.000000,,2013-05-28 02:11:00,
2013-05-27 20:21:00,68.0,36.0,-100.00,North,-999,-999.0,4.0,31,0.00,,,-99.99,32.000000,,2013-05-28 02:21:00,
2013-05-27 20:32:00,66.0,39.0,-100.00,North,-999,-999.0,3.0,38,0.00,,,-99.99,24.000000,,2013-05-28 02:32:00,
2013-05-27 20:41:00,64.0,37.0,-100.00,North,-999,-999.0,4.0,37,0.00,,,-99.99,25.000000,,2013-05-28 02:41:00,
2013-05-27 20:51:00,64.0,31.0,-100.00,North,-999,-999.0,5.0,29,0.00,,,-99.99,13.000000,,2013-05-28 02:51:00,
2013-05-27 21:01:00,66.0,33.0,-100.00,North,-999,-999.0,6.0,29,0.00,,,-99.99,5.000000,,2013-05-28 03:01:00,
2013-05-27 21:11:00,65.0,32.0,-100.00,North,-999,-999.0,4.0,29,0.00,,,-99.99,1.000000,,2013-05-28 03:11:00,
2013-05-27 21:21:00,63.0,37.0,-100.00,North,-999,-999.0,5.0,39,0.00,,,-99.99,0.000000,,2013-05-28 03:21:00,
2013-05-27 21:33:00,63.0,37.0,-100.00,North,-999,-999.0,5.0,39,0.00,,,-99.99,0.000000,,2013-05-28 03:33:00,
2013-05-27 21:43:00,61.0,39.0,-100.00,North,-999,-999.0,4.0,45,0.00,,,-99.99,0.000000,,2013-05-28 03:43:00,
2013-05-27 21:50:00,59.0,42.0,-100.00,North,-999,-999.0,6.0,52,0.00,,,-99.99,0.000000,,2013-05-28 03:50:00,
2013-05-27 21:53:00,60.0,41.0,-100.00,North,-999,-999.0,6.0,49,0.00,,,-99.99,0.000000,,2013-05-28 03:53:00,
2013-05-27 22:02:00,59.0,42.0,-100.00,North,-999,-999.0,6.0,52,0.00,,,-99.99,0.000000,,2013-05-28 04:02:00,
2013-05-27 22:12:00,59.0,42.0,-100.00,North,-999,-999.0,6.0,52,0.00,,,-99.99,0.000000,,2013-05-28 04:12:00,
2013-05-27 22:22:00,59.0,42.0,-100.00,North,-999,-999.0,6.0,52,0.00,,,-99.99,0.000000,,2013-05-28 04:22:00,
2013-05-27 22:33:00,59.0,42.0,-100.00,North,-999,-999.0,6.0,52,0.00,,,-99.99,0.000000,,2013-05-28 04:33:00,
2013-05-27 22:42:00,59.0,42.0,-100.00,North,-999,-999.0,6.0,52,0.00,,,-99.99,0.000000,,2013-05-28 04:42:00,
2013-05-27 23:22:00,55.0,40.0,-100.00,North,-999,-999.0,4.0,57,0.00,,,-99.99,0.000000,,2013-05-28 05:22:00,
2013-05-27 23:33:00,56.0,38.0,-100.00,North,-999,-999.0,5.0,51,0.00,,,-99.99,0.000000,,2013-05-28 05:33:00,
2013-05-27 23:42:00,58.0,39.0,-100.00,North,-999,-999.0,6.0,49,0.00,,,-99.99,0.000000,,2013-05-28 05:42:00,
2013-05-27 23:52:00,58.0,39.0,-100.00,North,-999,-999.0,5.0,49,0.00,,,-99.99,0.000000,,2013-05-28 05:52:00,